Time;durP1;ratioP1;P1;durP2;ratioP2;P2;SDS_P1;SDS_P2;PMS_P1;PMS_P2;Temp;Humidity;BMP_temperature;BMP_pressure;BME280_temperature;BME280_humidity;BME280_pressure;Samples;Min_cycle;Max_cycle;Signal;HPM_P1;HPM_P2
2022/07/07 00:02:17;;;;;;;;;;;;;;;;;;4969652;28;7067;-81
2022/07/07 00:04:42;;;;;;;;;;;;;;;;;;4976358;28;7194;-78
2022/07/07 00:07:08;;;;;;;;;;;;;;;;;;4977258;28;8740;-78
2022/07/07 00:09:34;;;;;;;;;;;;;;;;;;4977340;28;9144;-78
2022/07/07 00:12:00;;;;;;;;;;;;;;;;;;4968165;28;8424;-78
2022/07/07 00:14:26;;;;;;;;;;;;;;;;;;4969392;28;8809;-78
2022/07/07 00:16:52;;;;;;;;;;;;;;;;;;4977280;28;8390;-78
2022/07/07 00:19:18;;;;;;;;;;;;;;;;;;4969427;28;8404;-78
2022/07/07 00:21:43;;;;;;;;;;;;;;;;;;4977715;28;8530;-78
2022/07/07 00:24:08;;;;;;;;;;;;;;;;;;4971873;28;8307;-77
2022/07/07 00:26:34;;;;;;;;;;;;;;;;;;4968892;28;8525;-77
2022/07/07 00:29:00;;;;;;;;;;;;;;;;;;4975393;28;8410;-78
2022/07/07 00:31:26;;;;;;;;;;;;;;;;;;4976780;28;8611;-78
2022/07/07 00:33:51;;;;;;;;;;;;;;;;;;4971914;28;8457;-78
2022/07/07 00:36:17;;;;;;;;;;;;;;;;;;4977010;28;8469;-78
2022/07/07 00:38:42;;;;;;;;;;;;;;;;;;4967184;28;8443;-78
2022/07/07 00:41:08;;;;;;;;;;;;;;;;;;4971390;28;7037;-77
2022/07/07 00:43:38;;;;;;;;;;;;;;;;;;4974617;28;8760;-78
2022/07/07 00:46:04;;;;;;;;;;;;;;;;;;4975119;28;8510;-77
2022/07/07 00:48:32;;;;;;;;;;;;;;;;;;4976389;28;7028;-78
2022/07/07 00:50:58;;;;;;;;;;;;;;;;;;4976683;28;8340;-78
2022/07/07 00:53:24;;;;;;;;;;;;;;;;;;4969612;28;8726;-78
2022/07/07 00:55:49;;;;;;;;;;;;;;;;;;4966274;28;8416;-77
2022/07/07 00:58:15;;;;;;;;;;;;;;;;;;4977014;28;8425;-78
2022/07/07 01:00:41;;;;;;;;;;;;;;;;;;4976441;28;6999;-77
2022/07/07 01:03:08;;;;;;;;;;;;;;;;;;4976733;28;7180;-77
2022/07/07 01:05:36;;;;;;;;;;;;;;;;;;4976887;28;8432;-81
2022/07/07 01:08:03;;;;;;;;;;;;;;;;;;4977151;28;7178;-80
2022/07/07 01:10:29;;;;;;;;;;;;;;;;;;4976774;28;7158;-81
2022/07/07 01:12:55;;;;;;;;;;;;;;;;;;4977832;28;7058;-81
2022/07/07 01:15:20;;;;;;;;;;;;;;;;;;4976711;28;7146;-81
2022/07/07 01:17:46;;;;;;;;;;;;;;;;;;4976861;28;8752;-82
2022/07/07 01:20:13;;;;;;;;;;;;;;;;;;4976927;28;8438;-81
2022/07/07 01:22:47;;;;;;;;;;;;;;;;;;4976854;28;7586;-81
2022/07/07 01:25:12;;;;;;;;;;;;;;;;;;4974138;28;7031;-81
2022/07/07 01:27:38;;;;;;;;;;;;;;;;;;4976006;28;8505;-82
2022/07/07 01:30:04;;;;;;;;;;;;;;;;;;4967953;28;7181;-81
2022/07/07 01:32:29;;;;;;;;;;;;;;;;;;4975518;28;8335;-81
2022/07/07 01:34:55;;;;;;;;;;;;;;;;;;4967779;28;7170;-79
2022/07/07 01:37:24;;;;;;;;;;;;;;;;;;4973977;28;8419;-81
2022/07/07 01:39:50;;;;;;;;;;;;;;;;;;4975538;28;8339;-81
2022/07/07 01:42:15;;;;;;;;;;;;;;;;;;4975882;28;8357;-82
2022/07/07 01:44:42;;;;;;;;;;;;;;;;;;4960524;28;8396;-82
2022/07/07 01:47:09;;;;;;;;;;;;;;;;;;4940771;28;8715;-80
2022/07/07 01:49:36;;;;;;;;;;;;;;;;;;4940710;28;8438;-80
2022/07/07 01:52:03;;;;;;;;;;;;;;;;;;4940154;28;8457;-82
2022/07/07 01:54:29;;;;;;;;;;;;;;;;;;4940473;28;7360;-81
2022/07/07 01:56:55;;;;;;;;;;;;;;;;;;4940961;28;7240;-83
2022/07/07 01:59:21;;;;;;;;;;;;;;;;;;4941393;28;8320;-80
2022/07/07 02:01:46;;;;;;;;;;;;;;;;;;4942349;28;7011;-81
2022/07/07 02:04:12;;;;;;;;;;;;;;;;;;4940462;28;8408;-82
2022/07/07 02:06:38;;;;;;;;;;;;;;;;;;4940382;28;8556;-80
2022/07/07 02:09:05;;;;;;;;;;;;;;;;;;4941251;28;8494;-81
2022/07/07 02:11:30;;;;;;;;;;;;;;;;;;4940302;28;8417;-80
2022/07/07 02:13:57;;;;;;;;;;;;;;;;;;4956556;28;8749;-80
2022/07/07 02:16:24;;;;;;;;;;;;;;;;;;4940149;28;8327;-82
2022/07/07 02:18:53;;;;;;;;;;;;;;;;;;4940065;28;7195;-81
2022/07/07 02:21:21;;;;;;;;;;;;;;;;;;4940151;28;7083;-81
2022/07/07 02:23:48;;;;;;;;;;;;;;;;;;4940277;28;7044;-81
2022/07/07 02:26:14;;;;;;;;;;;;;;;;;;4940131;28;7190;-81
2022/07/07 02:28:40;;;;;;;;;;;;;;;;;;4940170;28;8577;-82
2022/07/07 02:31:06;;;;;;;;;;;;;;;;;;4940064;28;7066;-81
2022/07/07 02:33:33;;;;;;;;;;;;;;;;;;4940222;28;8759;-81
2022/07/07 02:35:58;;;;;;;;;;;;;;;;;;4940080;28;7186;-82
2022/07/07 02:38:25;;;;;;;;;;;;;;;;;;4939980;28;9472;-82
2022/07/07 02:40:52;;;;;;;;;;;;;;;;;;4940710;28;8383;-80
2022/07/07 02:43:19;;;;;;;;;;;;;;;;;;4939610;28;8810;-81
2022/07/07 02:45:46;;;;;;;;;;;;;;;;;;4952696;28;8733;-82
2022/07/07 02:48:13;;;;;;;;;;;;;;;;;;4975122;28;7053;-81
2022/07/07 02:50:39;;;;;;;;;;;;;;;;;;4975237;28;7385;-81
2022/07/07 02:53:05;;;;;;;;;;;;;;;;;;4975344;28;8383;-79
2022/07/07 02:55:31;;;;;;;;;;;;;;;;;;4974845;28;8393;-80
2022/07/07 02:58:01;;;;;;;;;;;;;;;;;;4974922;28;7422;-79
2022/07/07 03:00:27;;;;;;;;;;;;;;;;;;4975083;28;8385;-81
2022/07/07 03:02:53;;;;;;;;;;;;;;;;;;4975461;28;8444;-80
2022/07/07 03:05:19;;;;;;;;;;;;;;;;;;4974584;28;8402;-82
2022/07/07 03:07:45;;;;;;;;;;;;;;;;;;4974550;28;7034;-79
2022/07/07 03:10:10;;;;;;;;;;;;;;;;;;4974763;28;8450;-80
2022/07/07 03:12:36;;;;;;;;;;;;;;;;;;4975182;28;8521;-80
2022/07/07 03:15:01;;;;;;;;;;;;;;;;;;4974501;28;8834;-81
2022/07/07 03:17:27;;;;;;;;;;;;;;;;;;4974974;28;8423;-81
2022/07/07 03:19:52;;;;;;;;;;;;;;;;;;4975454;28;8475;-81
2022/07/07 03:22:19;;;;;;;;;;;;;;;;;;4974735;28;8390;-80
2022/07/07 03:24:44;;;;;;;;;;;;;;;;;;4974992;28;8425;-80
2022/07/07 03:27:11;;;;;;;;;;;;;;;;;;4975015;28;8475;-80
2022/07/07 03:29:37;;;;;;;;;;;;;;;;;;4974715;28;8500;-81
2022/07/07 03:32:02;;;;;;;;;;;;;;;;;;4974542;28;7036;-82
2022/07/07 03:34:28;;;;;;;;;;;;;;;;;;4974501;28;8385;-82
2022/07/07 03:36:53;;;;;;;;;;;;;;;;;;4974101;28;8437;-81
2022/07/07 03:39:19;;;;;;;;;;;;;;;;;;4974508;28;8403;-81
2022/07/07 03:41:44;;;;;;;;;;;;;;;;;;4974229;28;8352;-81
2022/07/07 03:44:10;;;;;;;;;;;;;;;;;;4974261;28;7355;-81
2022/07/07 03:46:35;;;;;;;;;;;;;;;;;;4973872;28;7410;-81
2022/07/07 03:49:01;;;;;;;;;;;;;;;;;;4965902;28;7418;-81
2022/07/07 03:51:26;;;;;;;;;;;;;;;;;;4973754;28;7430;-81
2022/07/07 03:53:52;;;;;;;;;;;;;;;;;;4965874;28;8897;-82
2022/07/07 03:56:18;;;;;;;;;;;;;;;;;;4971319;28;9758;-82
2022/07/07 03:58:43;;;;;;;;;;;;;;;;;;4973636;28;7185;-81
2022/07/07 04:01:09;;;;;;;;;;;;;;;;;;4973826;28;7011;-81
2022/07/07 04:03:34;;;;;;;;;;;;;;;;;;4965862;28;8614;-81
2022/07/07 04:06:00;;;;;;;;;;;;;;;;;;4967853;28;8464;-81
2022/07/07 04:08:25;;;;;;;;;;;;;;;;;;4965919;28;8800;-81
2022/07/07 04:10:51;;;;;;;;;;;;;;;;;;4974005;28;8422;-81
2022/07/07 04:13:16;;;;;;;;;;;;;;;;;;4965498;28;8477;-81
2022/07/07 04:15:42;;;;;;;;;;;;;;;;;;4965820;28;8489;-81
2022/07/07 04:18:07;;;;;;;;;;;;;;;;;;4965780;28;8542;-81
2022/07/07 04:20:33;;;;;;;;;;;;;;;;;;4975856;28;7056;-81
2022/07/07 04:22:58;;;;;;;;;;;;;;;;;;4966694;28;8404;-81
2022/07/07 04:25:24;;;;;;;;;;;;;;;;;;4968592;28;7030;-82
2022/07/07 04:27:50;;;;;;;;;;;;;;;;;;4977436;28;8431;-82
2022/07/07 04:30:17;;;;;;;;;;;;;;;;;;4966848;28;8703;-80
2022/07/07 04:32:43;;;;;;;;;;;;;;;;;;4977144;28;8608;-81
2022/07/07 04:35:09;;;;;;;;;;;;;;;;;;4970219;28;8901;-81
2022/07/07 04:37:34;;;;;;;;;;;;;;;;;;4968851;28;8444;-81
2022/07/07 04:40:00;;;;;;;;;;;;;;;;;;4971790;28;8420;-81
2022/07/07 04:42:25;;;;;;;;;;;;;;;;;;4977148;28;8432;-81
2022/07/07 04:44:51;;;;;;;;;;;;;;;;;;4976402;28;8447;-81
2022/07/07 04:47:17;;;;;;;;;;;;;;;;;;4973975;28;9208;-81
2022/07/07 04:49:43;;;;;;;;;;;;;;;;;;4958149;28;8517;-82
2022/07/07 04:52:09;;;;;;;;;;;;;;;;;;4959859;28;7434;-81
2022/07/07 04:54:34;;;;;;;;;;;;;;;;;;4976172;28;8462;-82
2022/07/07 04:57:00;;;;;;;;;;;;;;;;;;4966080;28;8514;-81
2022/07/07 04:59:26;;;;;;;;;;;;;;;;;;4976484;28;8349;-81
2022/07/07 05:01:52;;;;;;;;;;;;;;;;;;4968439;28;8331;-81
2022/07/07 05:04:18;;;;;;;;;;;;;;;;;;4976285;28;8442;-81
2022/07/07 05:06:43;;;;;;;;;;;;;;;;;;4968175;28;7289;-81
2022/07/07 05:09:09;;;;;;;;;;;;;;;;;;4976343;28;8400;-81
2022/07/07 05:11:35;;;;;;;;;;;;;;;;;;4968207;28;8530;-80
2022/07/07 05:14:02;;;;;;;;;;;;;;;;;;4973858;28;7207;-81
2022/07/07 05:16:28;;;;;;;;;;;;;;;;;;4976214;28;7185;-81
2022/07/07 05:18:54;;;;;;;;;;;;;;;;;;4968829;28;9554;-81
2022/07/07 05:21:19;;;;;;;;;;;;;;;;;;4967860;28;7439;-80
2022/07/07 05:23:45;;;;;;;;;;;;;;;;;;4976178;28;8402;-81
2022/07/07 05:26:10;;;;;;;;;;;;;;;;;;4967859;28;7121;-80
2022/07/07 05:28:41;;;;;;;;;;;;;;;;;;4975210;28;8738;-81
2022/07/07 05:31:08;;;;;;;;;;;;;;;;;;4959568;28;7099;-82
2022/07/07 05:33:33;;;;;;;;;;;;;;;;;;4964220;28;7109;-79
2022/07/07 05:35:59;;;;;;;;;;;;;;;;;;4971321;28;8435;-80
2022/07/07 05:38:24;;;;;;;;;;;;;;;;;;4975736;28;7418;-80
2022/07/07 05:40:50;;;;;;;;;;;;;;;;;;4974778;28;7059;-80
2022/07/07 05:43:15;;;;;;;;;;;;;;;;;;4975316;28;8418;-77
2022/07/07 05:45:41;;;;;;;;;;;;;;;;;;4974961;28;8465;-81
2022/07/07 05:48:06;;;;;;;;;;;;;;;;;;4974759;28;7084;-77
2022/07/07 05:50:32;;;;;;;;;;;;;;;;;;4974939;28;8675;-80
2022/07/07 05:52:57;;;;;;;;;;;;;;;;;;4975453;28;8339;-81
2022/07/07 05:55:23;;;;;;;;;;;;;;;;;;4974536;28;7169;-82
2022/07/07 05:57:48;;;;;;;;;;;;;;;;;;4974890;28;7101;-82
2022/07/07 06:00:14;;;;;;;;;;;;;;;;;;4975069;28;8437;-77
2022/07/07 06:02:39;;;;;;;;;;;;;;;;;;4974810;28;7501;-81
2022/07/07 06:05:05;;;;;;;;;;;;;;;;;;4974742;28;8415;-81
2022/07/07 06:07:31;;;;;;;;;;;;;;;;;;4974904;28;8318;-78
2022/07/07 06:09:57;;;;;;;;;;;;;;;;;;4974976;28;8467;-82
2022/07/07 06:12:22;;;;;;;;;;;;;;;;;;4974508;28;7041;-81
2022/07/07 06:14:47;;;;;;;;;;;;;;;;;;4974379;28;8440;-80
2022/07/07 06:17:13;;;;;;;;;;;;;;;;;;4974044;28;7598;-80
2022/07/07 06:19:38;;;;;;;;;;;;;;;;;;4974862;28;7177;-82
2022/07/07 06:22:04;;;;;;;;;;;;;;;;;;4975001;28;8380;-81
2022/07/07 06:24:29;;;;;;;;;;;;;;;;;;4974214;28;8422;-74
2022/07/07 06:26:55;;;;;;;;;;;;;;;;;;4974311;28;8872;-81
2022/07/07 06:29:20;;;;;;;;;;;;;;;;;;4973839;28;8749;-79
2022/07/07 06:31:46;;;;;;;;;;;;;;;;;;4973886;28;8442;-80
2022/07/07 06:34:11;;;;;;;;;;;;;;;;;;4974226;28;7046;-82
2022/07/07 06:36:37;;;;;;;;;;;;;;;;;;4970956;28;8733;-82
2022/07/07 06:39:02;;;;;;;;;;;;;;;;;;4961312;28;7211;-80
2022/07/07 06:41:38;;;;;;;;;;;;;;;;;;4973842;28;8600;-82
2022/07/07 06:44:04;;;;;;;;;;;;;;;;;;4973439;28;7200;-78
2022/07/07 06:46:30;;;;;;;;;;;;;;;;;;4973628;28;8463;-82
2022/07/07 06:48:56;;;;;;;;;;;;;;;;;;4974183;28;8261;-77
2022/07/07 06:51:32;;;;;;;;;;;;;;;;;;4974273;28;6858;-77
2022/07/07 06:53:57;;;;;;;;;;;;;;;;;;4973591;28;8403;-77
2022/07/07 06:56:23;;;;;;;;;;;;;;;;;;4973715;28;9164;-80
2022/07/07 06:58:49;;;;;;;;;;;;;;;;;;4973912;28;8381;-81
2022/07/07 07:01:16;;;;;;;;;;;;;;;;;;4973559;28;8610;-79
2022/07/07 07:03:41;;;;;;;;;;;;;;;;;;4974134;28;7184;-82
2022/07/07 07:06:07;;;;;;;;;;;;;;;;;;4973978;28;7018;-81
2022/07/07 07:08:32;;;;;;;;;;;;;;;;;;4973272;28;7056;-80
2022/07/07 07:10:58;;;;;;;;;;;;;;;;;;4973236;28;7251;-79
2022/07/07 07:13:25;;;;;;;;;;;;;;;;;;4973784;28;8333;-80
2022/07/07 07:15:50;;;;;;;;;;;;;;;;;;4973790;28;8567;-79
2022/07/07 07:18:16;;;;;;;;;;;;;;;;;;4974118;28;8456;-82
2022/07/07 07:20:41;;;;;;;;;;;;;;;;;;4973947;28;8507;-82
2022/07/07 07:23:07;;;;;;;;;;;;;;;;;;4973702;28;8408;-81
2022/07/07 07:25:33;;;;;;;;;;;;;;;;;;4966544;28;6854;-78
2022/07/07 07:27:58;;;;;;;;;;;;;;;;;;4973580;28;6992;-77
2022/07/07 07:30:24;;;;;;;;;;;;;;;;;;4957289;28;8425;-78
2022/07/07 07:32:49;;;;;;;;;;;;;;;;;;4973320;28;8888;-77
2022/07/07 07:35:15;;;;;;;;;;;;;;;;;;4974006;28;8698;-80
2022/07/07 07:37:41;;;;;;;;;;;;;;;;;;4972978;28;8608;-79
2022/07/07 07:40:08;;;;;;;;;;;;;;;;;;4973694;28;7196;-80
2022/07/07 07:42:34;;;;;;;;;;;;;;;;;;4966261;28;8407;-80
2022/07/07 07:45:11;;;;;;;;;;;;;;;;;;4956966;28;8402;-81
2022/07/07 07:47:37;;;;;;;;;;;;;;;;;;4973538;28;8713;-77
2022/07/07 07:50:03;;;;;;;;;;;;;;;;;;4973541;28;8311;-77
2022/07/07 07:52:28;;;;;;;;;;;;;;;;;;4973205;28;7024;-80
2022/07/07 07:54:54;;;;;;;;;;;;;;;;;;4975159;28;8612;-79
2022/07/07 07:57:19;;;;;;;;;;;;;;;;;;4977370;28;8424;-81
2022/07/07 07:59:45;;;;;;;;;;;;;;;;;;4976459;28;8651;-80
2022/07/07 08:02:11;;;;;;;;;;;;;;;;;;4978600;28;8463;-80
2022/07/07 08:04:37;;;;;;;;;;;;;;;;;;4981834;28;7266;-80
2022/07/07 08:07:02;;;;;;;;;;;;;;;;;;4978580;28;8405;-81
2022/07/07 08:09:28;;;;;;;;;;;;;;;;;;4978385;28;8390;-81
2022/07/07 08:11:53;;;;;;;;;;;;;;;;;;4977712;28;7201;-81
2022/07/07 08:14:19;;;;;;;;;;;;;;;;;;4977427;28;7247;-81
2022/07/07 08:16:44;;;;;;;;;;;;;;;;;;4977182;28;7048;-80
2022/07/07 08:19:10;;;;;;;;;;;;;;;;;;4977009;28;8488;-80
2022/07/07 08:21:35;;;;;;;;;;;;;;;;;;4976814;28;8407;-77
2022/07/07 08:24:01;;;;;;;;;;;;;;;;;;4976467;28;8586;-81
2022/07/07 08:26:26;;;;;;;;;;;;;;;;;;4977043;28;8440;-81
2022/07/07 08:28:52;;;;;;;;;;;;;;;;;;4976803;28;7163;-81
2022/07/07 08:31:18;;;;;;;;;;;;;;;;;;4976199;28;8422;-80
2022/07/07 08:33:43;;;;;;;;;;;;;;;;;;4976639;28;8436;-81
2022/07/07 08:36:08;;;;;;;;;;;;;;;;;;4976582;28;8443;-80
2022/07/07 08:38:34;;;;;;;;;;;;;;;;;;4976011;28;8769;-81
2022/07/07 08:41:00;;;;;;;;;;;;;;;;;;4977343;28;8767;-82
2022/07/07 08:43:26;;;;;;;;;;;;;;;;;;4976860;28;8481;-82
2022/07/07 08:45:53;;;;;;;;;;;;;;;;;;4977262;28;8467;-82
2022/07/07 08:48:19;;;;;;;;;;;;;;;;;;4977341;28;8632;-82
2022/07/07 08:50:46;;;;;;;;;;;;;;;;;;4977526;28;8408;-82
2022/07/07 08:53:12;;;;;;;;;;;;;;;;;;4977397;28;8442;-81
2022/07/07 08:55:41;;;;;;;;;;;;;;;;;;4976883;28;7103;-80
2022/07/07 08:58:09;;;;;;;;;;;;;;;;;;4976646;28;7185;-81
2022/07/07 09:00:35;;;;;;;;;;;;;;;;;;4976898;28;8741;-81
2022/07/07 09:03:05;;;;;;;;;;;;;;;;;;4976655;28;7152;-81
2022/07/07 09:05:37;;;;;;;;;;;;;;;;;;4976499;28;7422;-83
2022/07/07 09:08:15;;;;;;;;;;;;;;;;;;4977098;28;8639;-82
2022/07/07 09:10:42;;;;;;;;;;;;;;;;;;4977430;28;8707;-83
2022/07/07 09:13:28;;;;;;;;;;;;;;;;;;4976884;28;7216;-81
2022/07/07 09:15:55;;;;;;;;;;;;;;;;;;4976834;28;8377;-82
2022/07/07 09:18:31;;;;;;;;;;;;;;;;;;4976578;28;7089;-74
2022/07/07 09:20:58;;;;;;;;;;;;;;;;;;4976414;28;7316;-82
2022/07/07 09:23:24;;;;;;;;;;;;;;;;;;4976544;28;8388;-82
2022/07/07 09:25:50;;;;;;;;;;;;;;;;;;4976069;28;8616;-76
2022/07/07 09:28:15;;;;;;;;;;;;;;;;;;4974421;28;8284;-81
2022/07/07 09:30:45;;;;;;;;;;;;;;;;;;4959224;28;8789;-73
2022/07/07 09:33:14;;;;;;;;;;;;;;;;;;4958774;28;8777;-80
2022/07/07 09:38:29;;;;;;;;;;;;;;;;;;4975295;28;6817;-77
2022/07/07 09:41:08;;;;;;;;;;;;;;;;;;4958787;28;8465;-77
2022/07/07 09:43:33;;;;;;;;;;;;;;;;;;4959711;28;7047;-80
2022/07/07 09:46:33;;;;;;;;;;;;;;;;;;4975617;28;8342;-80
2022/07/07 09:49:00;;;;;;;;;;;;;;;;;;4967107;28;8844;-82
2022/07/07 09:51:27;;;;;;;;;;;;;;;;;;4996693;28;7070;-81
2022/07/07 09:54:00;;;;;;;;;;;;;;;;;;4996349;28;8517;-81
2022/07/07 09:56:28;;;;;;;;;;;;;;;;;;4995410;28;7106;-81
2022/07/07 09:58:54;;;;;;;;;;;;;;;;;;4993997;28;7048;-81
2022/07/07 10:01:24;;;;;;;;;;;;;;;;;;4995011;28;7415;-80
2022/07/07 10:03:53;;;;;;;;;;;;;;;;;;4994134;28;7186;-82
2022/07/07 10:06:19;;;;;;;;;;;;;;;;;;4993367;28;8447;-82
2022/07/07 10:08:44;;;;;;;;;;;;;;;;;;4994281;28;8382;-83
2022/07/07 10:11:13;;;;;;;;;;;;;;;;;;4994048;28;7152;-81
2022/07/07 10:13:42;;;;;;;;;;;;;;;;;;4994055;28;7203;-81
2022/07/07 10:16:08;;;;;;;;;;;;;;;;;;4993507;28;8758;-81
2022/07/07 10:18:35;;;;;;;;;;;;;;;;;;4993316;28;8442;-82
2022/07/07 10:21:01;;;;;;;;;;;;;;;;;;4994004;28;8604;-80
2022/07/07 10:23:28;;;;;;;;;;;;;;;;;;4994516;28;8456;-82
2022/07/07 10:26:04;;;;;;;;;;;;;;;;;;4992755;28;8578;-81
2022/07/07 10:28:48;;;;;;;;;;;;;;;;;;4974064;28;7044;-77
2022/07/07 10:31:24;;;;;;;;;;;;;;;;;;4973816;28;8479;-78
2022/07/07 10:33:59;;;;;;;;;;;;;;;;;;4974135;28;7372;-80
2022/07/07 10:36:25;;;;;;;;;;;;;;;;;;4974570;28;7305;-82
2022/07/07 10:38:52;;;;;;;;;;;;;;;;;;4974397;28;7048;-82
2022/07/07 10:41:25;;;;;;;;;;;;;;;;;;4974017;28;8949;-77
2022/07/07 10:43:58;;;;;;;;;;;;;;;;;;4974679;28;8524;-80
2022/07/07 10:46:24;;;;;;;;;;;;;;;;;;4973958;28;7270;-83
2022/07/07 10:48:52;;;;;;;;;;;;;;;;;;4973736;28;7070;-81
2022/07/07 10:51:22;;;;;;;;;;;;;;;;;;4957756;28;8517;-78
2022/07/07 10:54:03;;;;;;;;;;;;;;;;;;4958008;28;8478;-82
2022/07/07 10:56:47;;;;;;;;;;;;;;;;;;4957881;28;7271;-83
2022/07/07 10:59:13;;;;;;;;;;;;;;;;;;4973692;28;8871;-81
2022/07/07 11:01:58;;;;;;;;;;;;;;;;;;4973535;28;7036;-81
2022/07/07 11:04:42;;;;;;;;;;;;;;;;;;4973949;28;9705;-80
2022/07/07 11:07:11;;;;;;;;;;;;;;;;;;4958372;28;7074;-80
2022/07/07 11:09:56;;;;;;;;;;;;;;;;;;4957399;28;8781;-81
2022/07/07 11:12:42;;;;;;;;;;;;;;;;;;4973679;28;8501;-81
2022/07/07 11:15:23;;;;;;;;;;;;;;;;;;4957845;28;8480;-82
2022/07/07 11:17:52;;;;;;;;;;;;;;;;;;4957545;28;8322;-82
2022/07/07 11:20:19;;;;;;;;;;;;;;;;;;4957561;28;8480;-78
2022/07/07 11:22:46;;;;;;;;;;;;;;;;;;4957641;28;8473;-78
2022/07/07 11:25:12;;;;;;;;;;;;;;;;;;4957428;28;8733;-78
2022/07/07 11:27:38;;;;;;;;;;;;;;;;;;4957044;28;8737;-80
2022/07/07 11:30:05;;;;;;;;;;;;;;;;;;4961195;28;8481;-80
2022/07/07 11:32:38;;;;;;;;;;;;;;;;;;4961103;28;7200;-80
2022/07/07 11:35:05;;;;;;;;;;;;;;;;;;4962401;28;8453;-79
2022/07/07 11:37:31;;;;;;;;;;;;;;;;;;4961872;28;8579;-77
2022/07/07 11:39:58;;;;;;;;;;;;;;;;;;4977243;28;7224;-80
2022/07/07 11:42:24;;;;;;;;;;;;;;;;;;4961816;28;8492;-82
2022/07/07 11:44:49;;;;;;;;;;;;;;;;;;4961783;28;7204;-81
2022/07/07 11:47:16;;;;;;;;;;;;;;;;;;4977486;28;8473;-79
2022/07/07 11:49:41;;;;;;;;;;;;;;;;;;4977376;28;8468;-79
2022/07/07 11:52:16;;;;;;;;;;;;;;;;;;4977100;28;8393;-78
2022/07/07 11:54:47;;;;;;;;;;;;;;;;;;4972976;28;7215;-78
2022/07/07 11:57:24;;;;;;;;;;;;;;;;;;4977023;28;7485;-82
2022/07/07 11:59:50;;;;;;;;;;;;;;;;;;4960243;28;8551;-82
2022/07/07 12:02:19;;;;;;;;;;;;;;;;;;4959717;28;8454;-83
2022/07/07 12:04:44;;;;;;;;;;;;;;;;;;4960536;28;7071;-80
2022/07/07 12:07:10;;;;;;;;;;;;;;;;;;4961363;28;8370;-81
2022/07/07 12:09:36;;;;;;;;;;;;;;;;;;4960143;28;7169;-81
2022/07/07 12:12:02;;;;;;;;;;;;;;;;;;4959839;28;8433;-82
2022/07/07 12:14:28;;;;;;;;;;;;;;;;;;4976588;28;7211;-82
2022/07/07 12:16:53;;;;;;;;;;;;;;;;;;4960782;28;8423;-82
2022/07/07 12:19:19;;;;;;;;;;;;;;;;;;4960608;28;8481;-81
2022/07/07 12:21:47;;;;;;;;;;;;;;;;;;4960754;28;7090;-82
2022/07/07 12:24:23;;;;;;;;;;;;;;;;;;4960307;28;8507;-82
2022/07/07 12:26:51;;;;;;;;;;;;;;;;;;4960859;28;7239;-82
2022/07/07 12:29:20;;;;;;;;;;;;;;;;;;4960069;28;7013;-84
2022/07/07 12:31:47;;;;;;;;;;;;;;;;;;4959389;28;8447;-79
2022/07/07 12:34:20;;;;;;;;;;;;;;;;;;4959933;28;7058;-77
2022/07/07 12:36:47;;;;;;;;;;;;;;;;;;4960986;28;7191;-80
2022/07/07 12:39:14;;;;;;;;;;;;;;;;;;4960206;28;8431;-82
2022/07/07 12:41:41;;;;;;;;;;;;;;;;;;4959655;28;8381;-82
2022/07/07 12:44:25;;;;;;;;;;;;;;;;;;4959092;28;7165;-80
2022/07/07 12:46:56;;;;;;;;;;;;;;;;;;4940630;28;7106;-77
2022/07/07 12:49:21;;;;;;;;;;;;;;;;;;4940702;28;7120;-82
2022/07/07 12:51:49;;;;;;;;;;;;;;;;;;4941432;28;8458;-81
2022/07/07 12:54:22;;;;;;;;;;;;;;;;;;4940302;28;7224;-82
2022/07/07 12:56:56;;;;;;;;;;;;;;;;;;4941174;28;8467;-82
2022/07/07 12:59:22;;;;;;;;;;;;;;;;;;4936994;28;8486;-80
2022/07/07 13:01:55;;;;;;;;;;;;;;;;;;4940488;28;7197;-82
2022/07/07 13:04:24;;;;;;;;;;;;;;;;;;4940835;28;8759;-82
2022/07/07 13:06:50;;;;;;;;;;;;;;;;;;4940523;28;7088;-81
2022/07/07 13:09:16;;;;;;;;;;;;;;;;;;4939863;28;8475;-78
2022/07/07 13:11:42;;;;;;;;;;;;;;;;;;4940083;28;8527;-77
2022/07/07 13:14:08;;;;;;;;;;;;;;;;;;4939930;28;8452;-81
2022/07/07 13:16:34;;;;;;;;;;;;;;;;;;4939765;28;8778;-82
2022/07/07 13:18:59;;;;;;;;;;;;;;;;;;4940715;28;7060;-81
2022/07/07 13:21:25;;;;;;;;;;;;;;;;;;4940478;28;7179;-81
2022/07/07 13:23:50;;;;;;;;;;;;;;;;;;4939836;28;8470;-82
2022/07/07 13:26:16;;;;;;;;;;;;;;;;;;4939884;28;8474;-82
2022/07/07 13:28:41;;;;;;;;;;;;;;;;;;4940644;28;7152;-81
2022/07/07 13:31:07;;;;;;;;;;;;;;;;;;4942456;28;8490;-81
2022/07/07 13:33:32;;;;;;;;;;;;;;;;;;4941379;28;7183;-80
2022/07/07 13:35:58;;;;;;;;;;;;;;;;;;4941163;28;7048;-79
2022/07/07 13:38:23;;;;;;;;;;;;;;;;;;4940156;28;8737;-82
2022/07/07 13:40:51;;;;;;;;;;;;;;;;;;4940266;28;8990;-81
2022/07/07 13:43:17;;;;;;;;;;;;;;;;;;4939580;28;8923;-82
2022/07/07 13:45:43;;;;;;;;;;;;;;;;;;4951271;28;7079;-81
2022/07/07 13:48:09;;;;;;;;;;;;;;;;;;4974073;28;7088;-79
2022/07/07 13:50:35;;;;;;;;;;;;;;;;;;4975401;28;8894;-80
2022/07/07 13:53:01;;;;;;;;;;;;;;;;;;4973043;28;8602;-81
2022/07/07 13:55:26;;;;;;;;;;;;;;;;;;4974353;28;8627;-81
2022/07/07 13:57:52;;;;;;;;;;;;;;;;;;4958377;28;7158;-82
2022/07/07 14:00:17;;;;;;;;;;;;;;;;;;4957769;28;7184;-77
2022/07/07 14:02:45;;;;;;;;;;;;;;;;;;4958236;28;9300;-81
2022/07/07 14:05:11;;;;;;;;;;;;;;;;;;4964904;28;8468;-81
2022/07/07 14:07:38;;;;;;;;;;;;;;;;;;4972968;28;8549;-82
2022/07/07 14:10:04;;;;;;;;;;;;;;;;;;4973709;28;8370;-77
2022/07/07 14:12:30;;;;;;;;;;;;;;;;;;4975097;28;8747;-77
2022/07/07 14:14:55;;;;;;;;;;;;;;;;;;4974329;28;8470;-80
2022/07/07 14:17:21;;;;;;;;;;;;;;;;;;4974178;28;7633;-76
2022/07/07 14:19:46;;;;;;;;;;;;;;;;;;4974738;28;7361;-77
2022/07/07 14:22:13;;;;;;;;;;;;;;;;;;4974123;28;8739;-77
2022/07/07 14:24:39;;;;;;;;;;;;;;;;;;4975179;28;8569;-76
2022/07/07 14:27:05;;;;;;;;;;;;;;;;;;4974962;28;8439;-80
2022/07/07 14:29:30;;;;;;;;;;;;;;;;;;4974739;28;8583;-81
2022/07/07 14:31:56;;;;;;;;;;;;;;;;;;4975840;28;7526;-82
2022/07/07 14:34:22;;;;;;;;;;;;;;;;;;4971444;28;7168;-82
2022/07/07 14:36:47;;;;;;;;;;;;;;;;;;4940343;28;7430;-80
2022/07/07 14:39:13;;;;;;;;;;;;;;;;;;4974843;28;7036;-81
2022/07/07 14:41:38;;;;;;;;;;;;;;;;;;4975246;28;8357;-81
2022/07/07 14:44:04;;;;;;;;;;;;;;;;;;4975203;28;7388;-81
2022/07/07 14:46:30;;;;;;;;;;;;;;;;;;4975038;28;7236;-82
2022/07/07 14:48:56;;;;;;;;;;;;;;;;;;4974850;28;7076;-82
2022/07/07 14:51:22;;;;;;;;;;;;;;;;;;4975535;28;8436;-80
2022/07/07 14:53:48;;;;;;;;;;;;;;;;;;4974979;28;8416;-81
2022/07/07 14:56:13;;;;;;;;;;;;;;;;;;4973400;28;7113;-82
2022/07/07 14:58:39;;;;;;;;;;;;;;;;;;4973850;28;7214;-81
2022/07/07 15:01:04;;;;;;;;;;;;;;;;;;4971203;28;8451;-80
2022/07/07 15:03:30;;;;;;;;;;;;;;;;;;4973337;28;8827;-82
2022/07/07 15:05:55;;;;;;;;;;;;;;;;;;4973273;28;8437;-81
2022/07/07 15:08:21;;;;;;;;;;;;;;;;;;4970482;28;8612;-80
2022/07/07 15:10:47;;;;;;;;;;;;;;;;;;4955850;28;8322;-80
2022/07/07 15:13:17;;;;;;;;;;;;;;;;;;4955627;28;8766;-82
2022/07/07 15:15:42;;;;;;;;;;;;;;;;;;4955625;28;7187;-81
2022/07/07 15:18:08;;;;;;;;;;;;;;;;;;4955290;28;8306;-82
2022/07/07 15:20:33;;;;;;;;;;;;;;;;;;4955610;29;8431;-81
2022/07/07 15:22:58;;;;;;;;;;;;;;;;;;4955252;29;7427;-81
2022/07/07 15:25:25;;;;;;;;;;;;;;;;;;4971830;28;8471;-81
2022/07/07 15:27:51;;;;;;;;;;;;;;;;;;4990938;28;8818;-80
2022/07/07 15:30:17;;;;;;;;;;;;;;;;;;4990164;28;7169;-80
2022/07/07 15:32:42;;;;;;;;;;;;;;;;;;4989502;28;8435;-76
2022/07/07 15:35:08;;;;;;;;;;;;;;;;;;4990600;28;8813;-80
2022/07/07 15:37:33;;;;;;;;;;;;;;;;;;4963022;28;7170;-81
2022/07/07 15:39:59;;;;;;;;;;;;;;;;;;4963583;28;7180;-80
2022/07/07 15:42:24;;;;;;;;;;;;;;;;;;4956566;28;8541;-80
2022/07/07 15:44:52;;;;;;;;;;;;;;;;;;4957325;28;8695;-81
2022/07/07 15:47:17;;;;;;;;;;;;;;;;;;4957828;28;7586;-79
2022/07/07 15:49:42;;;;;;;;;;;;;;;;;;4957478;28;8421;-80
2022/07/07 15:52:11;;;;;;;;;;;;;;;;;;4957464;28;8519;-79
2022/07/07 15:54:37;;;;;;;;;;;;;;;;;;4968009;28;8452;-79
2022/07/07 15:57:02;;;;;;;;;;;;;;;;;;4953115;29;7428;-80
2022/07/07 15:59:28;;;;;;;;;;;;;;;;;;4952824;29;7231;-80
2022/07/07 16:01:54;;;;;;;;;;;;;;;;;;4952495;29;7367;-80
2022/07/07 16:04:36;;;;;;;;;;;;;;;;;;4937620;29;7431;-79
2022/07/07 16:07:03;;;;;;;;;;;;;;;;;;4940033;28;7447;-74
2022/07/07 16:09:29;;;;;;;;;;;;;;;;;;4970690;28;7146;-80
2022/07/07 16:11:54;;;;;;;;;;;;;;;;;;4971879;28;8782;-79
2022/07/07 16:14:20;;;;;;;;;;;;;;;;;;4955458;28;6848;-80
2022/07/07 16:16:47;;;;;;;;;;;;;;;;;;4973872;28;7374;-80
2022/07/07 16:19:13;;;;;;;;;;;;;;;;;;4976656;28;7048;-79
2022/07/07 16:21:40;;;;;;;;;;;;;;;;;;4960413;28;7443;-81
2022/07/07 16:24:07;;;;;;;;;;;;;;;;;;4975358;28;7082;-80
2022/07/07 16:26:32;;;;;;;;;;;;;;;;;;4959673;28;7209;-81
2022/07/07 16:29:02;;;;;;;;;;;;;;;;;;4975961;28;8378;-81
2022/07/07 16:31:27;;;;;;;;;;;;;;;;;;4975012;28;8834;-80
2022/07/07 16:33:53;;;;;;;;;;;;;;;;;;4974372;28;7223;-80
2022/07/07 16:36:19;;;;;;;;;;;;;;;;;;4963803;28;9042;-80
2022/07/07 16:38:45;;;;;;;;;;;;;;;;;;4960850;28;7453;-82
2022/07/07 16:41:11;;;;;;;;;;;;;;;;;;4976887;28;8725;-81
2022/07/07 16:43:37;;;;;;;;;;;;;;;;;;4976912;28;7370;-81
2022/07/07 16:46:03;;;;;;;;;;;;;;;;;;4959825;28;8421;-82
2022/07/07 16:48:30;;;;;;;;;;;;;;;;;;4976475;28;8465;-80
2022/07/07 16:50:56;;;;;;;;;;;;;;;;;;4976512;28;8471;-82
2022/07/07 16:53:21;;;;;;;;;;;;;;;;;;4976103;28;8738;-82
2022/07/07 16:55:48;;;;;;;;;;;;;;;;;;4975226;28;8459;-81
2022/07/07 16:58:13;;;;;;;;;;;;;;;;;;4976720;28;7061;-81
2022/07/07 17:00:39;;;;;;;;;;;;;;;;;;4976550;28;8424;-81
2022/07/07 17:03:04;;;;;;;;;;;;;;;;;;4959943;28;7052;-80
2022/07/07 17:05:30;;;;;;;;;;;;;;;;;;4975609;28;7233;-82